Time;durP1;ratioP1;P1;durP2;ratioP2;P2;SDS_P1;SDS_P2;PMS_P1;PMS_P2;Temp;Humidity;BMP_temperature;BMP_pressure;BME280_temperature;BME280_humidity;BME280_pressure;Samples;Min_cycle;Max_cycle;Signal;HPM_P1;HPM_P2
2022/11/01 00:02:08;;;;;;;61.08;24.98;;;;;;;11.31;89.73;100688.73;1786700;79;25574;-64
2022/11/01 00:04:35;;;;;;;98.30;88.12;;;;;;;11.34;89.67;100688.92;1808741;79;25516;-64
2022/11/01 00:07:02;;;;;;;76.28;64.95;;;;;;;11.35;89.76;100683.73;1787918;78;25627;-65
2022/11/01 00:09:28;;;;;;;56.55;24.10;;;;;;;11.36;89.78;100684.56;1794801;79;25586;-65
2022/11/01 00:11:55;;;;;;;58.30;27.20;;;;;;;11.35;89.82;100685.09;1773193;80;27561;-65
2022/11/01 00:14:21;;;;;;;102.42;92.25;;;;;;;11.38;89.67;100690.47;1789667;79;25811;-64
2022/11/01 00:16:48;;;;;;;105.58;95.28;;;;;;;11.36;89.84;100685.91;1778028;79;26114;-65
2022/11/01 00:19:15;;;;;;;99.67;90.07;;;;;;;11.36;90.01;100687.27;1777629;79;26260;-66
2022/11/01 00:21:42;;;;;;;101.25;91.55;;;;;;;11.34;90.06;100682.16;1740008;82;25534;-66
2022/11/01 00:24:08;;;;;;;96.80;87.60;;;;;;;11.33;90.35;100688.66;1751354;81;27466;-66
2022/11/01 00:26:34;;;;;;;94.20;84.77;;;;;;;11.31;90.38;100686.02;1745734;80;25412;-65
2022/11/01 00:29:01;;;;;;;94.72;85.35;;;;;;;11.32;90.48;100684.91;1787649;79;25631;-65
2022/11/01 00:31:27;;;;;;;93.30;83.20;;;;;;;11.12;90.80;100641.48;1790601;79;25485;-65
2022/11/01 00:33:53;;;;;;;48.78;21.42;;;;;;;11.29;90.75;100673.31;1778572;79;25399;-66
2022/11/01 00:36:20;;;;;;;45.48;25.97;;;;;;;11.33;90.62;100680.53;1775820;79;27516;-66
2022/11/01 00:38:51;;;;;;;72.78;65.17;;;;;;;11.34;90.83;100684.04;1777753;80;25879;-66
2022/11/01 00:41:19;;;;;;;57.15;48.30;;;;;;;11.34;90.94;100678.63;1781752;79;25574;-65
2022/11/01 00:43:45;;;;;;;102.47;92.70;;;;;;;11.31;90.98;100668.42;1776348;80;25566;-66
2022/11/01 00:46:12;;;;;;;99.35;90.35;;;;;;;11.31;91.07;100670.57;1776976;79;25551;-66
2022/11/01 00:48:38;;;;;;;97.45;88.58;;;;;;;11.31;91.17;100667.86;1787526;79;27494;-66
2022/11/01 00:51:05;;;;;;;94.67;86.22;;;;;;;11.30;91.36;100664.89;1793206;79;25641;-66
2022/11/01 00:53:31;;;;;;;91.20;82.88;;;;;;;11.28;91.27;100663.61;1777542;80;25630;-66
2022/11/01 00:56:04;;;;;;;43.33;19.12;;;;;;;11.27;91.35;100660.64;1777308;80;25588;-66
2022/11/01 00:58:30;;;;;;;42.75;19.27;;;;;;;11.30;91.35;100667.59;1775840;79;25459;-66
2022/11/01 01:00:57;;;;;;;92.75;84.87;;;;;;;11.29;91.52;100666.02;1777664;80;26579;-66
2022/11/01 01:03:23;;;;;;;98.72;89.60;;;;;;;11.27;91.35;100655.23;1776694;80;25633;-66
2022/11/01 01:05:52;;;;;;;96.00;88.10;;;;;;;11.27;91.68;100655.23;1778557;79;25411;-66
2022/11/01 01:08:19;;;;;;;95.67;86.80;;;;;;;11.27;91.77;100656.05;1781106;79;26141;-64
2022/11/01 01:10:47;;;;;;;38.75;18.42;;;;;;;11.28;91.87;100650.86;1777780;79;25385;-64
2022/11/01 01:13:13;;;;;;;35.68;17.85;;;;;;;11.31;92.12;100644.05;1778438;80;27560;-64
2022/11/01 01:15:40;;;;;;;34.48;16.87;;;;;;;11.31;91.95;100653.53;1780899;79;25542;-64
2022/11/01 01:18:07;;;;;;;39.33;20.88;;;;;;;11.32;92.06;100650.52;1785220;79;25733;-64
2022/11/01 01:20:34;;;;;;;33.58;19.12;;;;;;;11.35;92.01;100649.09;1785593;79;25544;-64
2022/11/01 01:23:00;;;;;;;34.70;16.80;;;;;;;11.38;92.00;100645.78;1717874;82;25629;-66
2022/11/01 01:25:27;;;;;;;30.50;15.72;;;;;;;11.36;92.09;100639.31;1692529;82;27483;-64
2022/11/01 01:27:55;;;;;;;38.58;16.87;;;;;;;11.35;92.41;100636.34;1777426;79;26014;-64
2022/11/01 01:30:21;;;;;;;31.90;15.85;;;;;;;11.33;92.22;100636.41;1794323;79;25550;-64
2022/11/01 01:32:48;;;;;;;29.87;17.85;;;;;;;11.31;92.27;100635.92;1735159;82;26169;-64
2022/11/01 01:35:14;;;;;;;30.05;15.70;;;;;;;11.29;92.31;100638.11;1741312;81;25564;-64
2022/11/01 01:37:40;;;;;;;40.48;31.20;;;;;;;11.27;92.34;100633.56;1709759;82;27569;-64
2022/11/01 01:40:08;;;;;;;56.55;51.33;;;;;;;11.23;92.43;100633.37;1777552;80;25887;-64
2022/11/01 01:42:41;;;;;;;27.93;15.60;;;;;;;11.22;93.17;100638.56;1788012;79;25458;-64
2022/11/01 01:45:33;;;;;;;90.40;82.72;;;;;;;11.20;92.66;100638.86;1791314;79;27666;-64
2022/11/01 01:48:11;;;;;;;30.52;15.35;;;;;;;11.19;92.74;100636.45;1786007;79;25425;-65
2022/11/01 01:50:54;;;;;;;94.58;86.63;;;;;;;11.20;92.96;100636.69;1775270;80;27570;-64
2022/11/01 01:53:34;;;;;;;31.70;14.98;;;;;;;11.19;92.94;100628.33;1781252;79;25417;-65
2022/11/01 01:56:05;;;;;;;92.10;84.40;;;;;;;11.21;93.07;100636.38;1754199;81;25632;-63
2022/11/01 01:58:53;;;;;;;91.12;83.62;;;;;;;11.19;93.23;100631.83;1735390;82;26040;-63
2022/11/01 02:01:20;;;;;;;89.05;82.22;;;;;;;11.15;92.91;100633.55;1797603;79;25445;-64
2022/11/01 02:03:47;;;;;;;92.97;85.40;;;;;;;11.13;93.11;100622.77;1779986;80;27478;-64
2022/11/01 02:06:20;;;;;;;89.72;82.40;;;;;;;11.12;93.13;100629.31;1797989;79;25421;-65
2022/11/01 02:08:51;;;;;;;91.90;84.10;;;;;;;11.11;93.20;100620.92;1778613;79;25397;-65
2022/11/01 02:11:18;;;;;;;88.52;81.47;;;;;;;11.11;93.44;100614.95;1778633;80;25625;-65
2022/11/01 02:13:45;;;;;;;91.08;83.95;;;;;;;11.08;93.43;100616.91;1778484;79;25761;-65
2022/11/01 02:16:45;;;;;;;91.87;83.85;;;;;;;11.05;93.51;100613.48;1788581;79;27539;-65
2022/11/01 02:19:46;;;;;;;92.80;84.50;;;;;;;11.06;93.74;100616.41;1805623;79;25435;-63
2022/11/01 02:22:45;;;;;;;86.50;79.40;;;;;;;11.05;93.90;100613.48;1777198;80;25556;-63
2022/11/01 02:25:23;;;;;;;94.33;86.67;;;;;;;10.92;94.24;100581.83;1795455;79;25602;-63
2022/11/01 02:28:28;;;;;;;89.62;82.08;;;;;;;11.06;94.03;100613.70;1804364;79;25442;-63
2022/11/01 02:31:40;;;;;;;88.05;81.15;;;;;;;11.05;93.95;100606.71;1778708;79;28130;-65
2022/11/01 02:34:24;;;;;;;86.05;77.78;;;;;;;11.07;93.98;100605.84;1777754;80;25605;-63
2022/11/01 02:36:57;;;;;;;89.83;80.07;;;;;;;11.04;94.17;100599.69;1787217;79;25482;-63
2022/11/01 02:39:33;;;;;;;85.07;77.13;;;;;;;11.00;94.05;100591.38;1776315;79;26153;-63
2022/11/01 02:42:08;;;;;;;90.92;83.40;;;;;;;10.96;94.27;100583.59;1787740;79;25555;-63
2022/11/01 02:44:38;;;;;;;85.67;78.97;;;;;;;10.99;94.33;100593.03;1780482;79;27528;-65
2022/11/01 02:47:09;;;;;;;85.38;78.57;;;;;;;10.98;94.45;100590.88;1741089;82;27357;-63
2022/11/01 02:49:46;;;;;;;90.25;83.15;;;;;;;10.98;94.45;100592.23;1778789;79;25480;-64
2022/11/01 02:52:18;;;;;;;85.57;78.50;;;;;;;10.95;94.76;100588.78;1778764;79;25591;-64
2022/11/01 02:54:59;;;;;;;85.93;77.43;;;;;;;10.93;94.64;100584.76;1780989;79;25524;-63
2022/11/01 02:57:39;;;;;;;29.05;14.63;;;;;;;10.93;94.86;100590.17;1740424;82;27570;-66
2022/11/01 03:00:24;;;;;;;30.97;14.68;;;;;;;10.92;94.88;100583.97;1781738;78;27362;-66
2022/11/01 03:03:03;;;;;;;92.80;85.40;;;;;;;10.90;94.91;100571.30;1776950;79;25379;-64
2022/11/01 03:05:51;;;;;;;94.00;85.63;;;;;;;10.92;95.05;100571.00;1783294;79;25554;-64
2022/11/01 03:08:23;;;;;;;92.42;84.60;;;;;;;10.90;95.22;100562.39;1736954;81;25496;-64
2022/11/01 03:11:10;;;;;;;39.83;16.85;;;;;;;10.90;95.22;100563.74;1681394;84;27383;-64
2022/11/01 03:14:12;;;;;;;39.80;15.95;;;;;;;10.93;95.37;100558.52;1740005;82;27375;-64
2022/11/01 03:16:53;;;;;;;27.85;13.30;;;;;;;10.94;95.41;100552.55;1717968;82;25566;-64
2022/11/01 03:19:45;;;;;;;46.10;40.30;;;;;;;10.96;95.53;100551.12;1728449;82;26257;-64
2022/11/01 03:22:28;;;;;;;32.98;15.30;;;;;;;10.98;95.69;100552.98;1710709;82;25410;-64
2022/11/01 03:25:37;;;;;;;31.87;15.72;;;;;;;11.00;95.58;100552.69;1730263;82;27353;-64
2022/11/01 03:27:41;;;;;;;31.23;15.60;;;;;;;10.99;95.52;100545.10;1719707;81;26031;-66
2022/11/01 03:30:12;;;;;;;80.77;73.83;;;;;;;11.01;95.77;100554.27;1691927;84;25453;-66
2022/11/01 03:32:53;;;;;;;60.52;54.15;;;;;;;11.00;95.46;100553.48;1728280;81;26125;-64
2022/11/01 03:35:24;;;;;;;41.05;15.58;;;;;;;10.99;95.78;100559.98;1683248;84;25390;-65
2022/11/01 03:37:57;;;;;;;44.85;20.52;;;;;;;10.98;95.63;100557.05;1694476;83;27402;-65
2022/11/01 03:40:27;;;;;;;89.58;82.35;;;;;;;10.98;95.72;100555.70;1683001;83;25590;-65
2022/11/01 03:43:00;;;;;;;97.30;88.70;;;;;;;10.99;95.63;100559.98;1685603;83;25368;-65
2022/11/01 03:45:29;;;;;;;81.28;74.10;;;;;;;11.00;95.83;100557.54;1743761;81;25496;-66
2022/11/01 03:47:56;;;;;;;96.82;88.75;;;;;;;10.99;95.85;100555.92;1761516;79;25330;-64
2022/11/01 03:50:27;;;;;;;92.10;83.97;;;;;;;10.99;95.85;100555.92;1796785;79;27378;-65
2022/11/01 03:52:55;;;;;;;95.65;86.50;;;;;;;10.98;95.77;100554.88;1773834;79;25582;-64
2022/11/01 03:55:23;;;;;;;97.85;88.37;;;;;;;10.98;96.15;100555.70;1774373;78;25513;-64
2022/11/01 03:57:56;;;;;;;91.97;84.90;;;;;;;10.96;95.98;100555.17;1801639;79;26032;-64
2022/11/01 04:00:30;;;;;;;88.05;80.40;;;;;;;10.96;95.98;100553.83;1788178;78;25619;-64
2022/11/01 04:02:59;;;;;;;94.95;86.90;;;;;;;8.60;95.92;100195.25;1772297;80;27320;-64
2022/11/01 04:05:29;;;;;;;87.80;80.77;;;;;;;10.92;96.06;100545.28;1772421;80;25868;-64
2022/11/01 04:07:57;;;;;;;76.15;69.17;;;;;;;10.94;96.20;100548.48;1773213;79;25547;-64
2022/11/01 04:10:27;;;;;;;94.62;86.85;;;;;;;10.95;96.29;100550.09;1773506;80;25600;-64
2022/11/01 04:12:56;;;;;;;96.37;88.70;;;;;;;10.95;96.30;100556.30;1763392;79;25533;-64
2022/11/01 04:21:17;;;;;;;93.58;85.90;;;;;;;10.96;96.58;100548.41;1778023;80;25559;-64
2022/11/01 04:23:46;;;;;;;93.75;86.25;;;;;;;10.95;96.58;100552.23;1778875;80;25548;-64
2022/11/01 04:26:20;;;;;;;85.22;78.35;;;;;;;10.93;96.73;100542.81;1778874;79;25322;-64
2022/11/01 04:28:57;;;;;;;42.20;35.98;;;;;;;10.93;96.67;100540.11;1769009;80;27388;-64
2022/11/01 04:31:29;;;;;;;91.47;83.70;;;;;;;10.95;96.85;100529.23;1773521;80;25352;-64
2022/11/01 04:33:58;;;;;;;97.78;89.32;;;;;;;10.96;97.13;100522.70;1778902;79;25353;-64
2022/11/01 04:36:26;;;;;;;91.22;83.70;;;;;;;10.99;97.00;100519.39;1808925;79;26002;-64
2022/11/01 04:38:56;;;;;;;94.77;86.50;;;;;;;10.99;96.76;100525.36;1793176;79;25361;-64
2022/11/01 04:41:28;;;;;;;92.75;85.05;;;;;;;11.02;96.79;100524.76;1801314;79;27410;-64
2022/11/01 04:43:58;;;;;;;90.40;82.22;;;;;;;11.02;96.74;100522.05;1795430;79;25509;-65
2022/11/01 04:46:32;;;;;;;88.03;81.08;;;;;;;11.04;96.86;100507.66;1783724;79;25578;-66
2022/11/01 04:48:59;;;;;;;89.40;82.35;;;;;;;11.04;96.61;100507.66;1774738;79;25564;-65
2022/11/01 04:51:27;;;;;;;91.70;84.37;;;;;;;11.03;96.63;100511.45;1770238;80;25531;-65
2022/11/01 04:53:54;;;;;;;90.47;82.62;;;;;;;11.03;96.47;100508.21;1772778;80;28030;-66
2022/11/01 04:56:21;;;;;;;90.12;82.30;;;;;;;11.03;96.41;100508.74;1764247;80;25531;-65
2022/11/01 04:58:48;;;;;;;86.57;80.12;;;;;;;11.11;96.38;100520.77;1784408;79;25364;-65
2022/11/01 05:01:15;;;;;;;87.45;80.77;;;;;;;11.01;96.37;100504.20;1764957;79;25496;-65
2022/11/01 05:03:42;;;;;;;87.85;80.75;;;;;;;10.98;96.47;100501.56;1779015;79;25520;-65
2022/11/01 05:06:09;;;;;;;89.05;81.78;;;;;;;10.60;96.59;100420.70;1767851;79;27322;-65
2022/11/01 05:08:37;;;;;;;91.30;84.10;;;;;;;10.98;96.47;100498.03;1778732;79;25856;-65
2022/11/01 05:11:04;;;;;;;89.50;82.35;;;;;;;11.01;96.40;100498.78;1778764;79;25459;-65
2022/11/01 05:13:32;;;;;;;83.40;77.03;;;;;;;11.01;96.40;100498.78;1778742;80;25489;-65
2022/11/01 05:16:02;;;;;;;86.92;79.72;;;;;;;10.99;96.52;100496.95;1786901;79;25526;-65
2022/11/01 05:18:29;;;;;;;92.05;84.85;;;;;;;10.98;96.63;100494.80;1741543;82;27343;-64
2022/11/01 05:20:57;;;;;;;89.37;82.33;;;;;;;10.99;96.65;100496.38;1717880;82;25582;-64
2022/11/01 05:23:24;;;;;;;89.90;82.85;;;;;;;11.00;96.63;100491.23;1719081;82;25470;-64
2022/11/01 05:25:51;;;;;;;88.78;81.08;;;;;;;11.01;96.54;100494.16;1712057;82;25554;-64
2022/11/01 05:28:18;;;;;;;87.92;80.00;;;;;;;10.98;96.35;100490.73;1757489;80;25396;-64
2022/11/01 05:30:45;;;;;;;87.05;79.67;;;;;;;10.95;96.17;100485.94;1775063;80;27348;-65
2022/11/01 05:33:12;;;;;;;93.37;86.30;;;;;;;10.93;96.21;100487.33;1780927;79;25318;-65
2022/11/01 05:35:39;;;;;;;84.15;77.62;;;;;;;10.89;96.08;100478.23;1782229;79;25346;-65
2022/11/01 05:38:09;;;;;;;90.25;80.50;;;;;;;10.88;96.23;100486.09;1797018;79;25602;-65
2022/11/01 05:40:36;;;;;;;85.35;77.87;;;;;;;10.87;96.25;100493.98;1775019;80;25307;-65
2022/11/01 05:43:03;;;;;;;85.05;78.62;;;;;;;10.83;96.15;100494.59;1772402;79;27496;-65
2022/11/01 05:45:31;;;;;;;84.42;77.97;;;;;;;10.83;96.39;100500.00;1775390;79;25995;-64
2022/11/01 05:48:03;;;;;;;66.00;60.27;;;;;;;10.81;96.50;100492.75;1793270;79;25578;-64
2022/11/01 05:50:31;;;;;;;84.83;78.00;;;;;;;10.84;97.09;100493.50;1773917;80;25560;-65
2022/11/01 05:53:08;;;;;;;65.37;60.38;;;;;;;10.85;97.31;100494.28;1777255;79;25340;-64
2022/11/01 05:58:03;;;;;;;89.33;81.90;;;;;;;10.99;97.44;100495.03;1899564;74;28143;-64
2022/11/01 06:00:30;;;;;;;88.97;81.95;;;;;;;10.93;97.38;100485.45;1868356;75;25513;-64
2022/11/01 06:02:58;;;;;;;89.67;82.82;;;;;;;10.94;97.14;100484.88;1859778;75;27462;-64
2022/11/01 06:05:26;;;;;;;92.57;83.92;;;;;;;10.97;97.15;100488.34;1859707;75;25359;-66
2022/11/01 06:07:52;;;;;;;93.60;85.53;;;;;;;10.98;97.02;100485.86;1871810;75;25421;-63
2022/11/01 06:10:18;;;;;;;89.75;82.27;;;;;;;10.96;96.65;100487.52;1822034;78;25609;-66
2022/11/01 06:12:44;;;;;;;89.62;81.67;;;;;;;10.97;96.81;100493.19;1778707;77;25386;-65
2022/11/01 06:15:12;;;;;;;91.32;84.25;;;;;;;10.98;96.60;100498.03;1802110;78;26274;-65
2022/11/01 06:17:38;;;;;;;21.48;20.05;;;;;;;10.62;96.71;100436.63;1801889;79;25680;-65
2022/11/01 06:20:05;;;;;;;18.60;17.42;;;;;;;10.98;96.65;100508.86;1802248;78;25620;-65
2022/11/01 06:22:35;;;;;;;86.02;79.00;;;;;;;11.01;96.79;100512.31;1809834;78;25431;-65
2022/11/01 06:25:01;;;;;;;35.52;13.65;;;;;;;10.98;96.59;100518.34;1802315;78;25707;-65
2022/11/01 06:27:28;;;;;;;31.10;13.88;;;;;;;11.00;96.47;100520.20;1789087;78;27515;-65
2022/11/01 06:29:55;;;;;;;25.65;14.07;;;;;;;11.03;96.75;100510.09;1815796;78;25746;-64
2022/11/01 06:32:22;;;;;;;32.85;13.83;;;;;;;11.04;96.81;100511.71;1812203;78;25625;-65
2022/11/01 06:34:48;;;;;;;79.00;71.35;;;;;;;11.03;96.84;100510.92;1824535;78;25554;-63
2022/11/01 06:37:14;;;;;;;71.12;65.50;;;;;;;11.06;96.61;100514.91;1802227;78;25463;-65
2022/11/01 06:39:41;;;;;;;27.60;12.93;;;;;;;11.08;96.58;100515.39;1802352;78;27435;-65
2022/11/01 06:42:08;;;;;;;30.02;20.43;;;;;;;11.08;96.50;100515.95;1805704;78;25437;-66
2022/11/01 06:44:34;;;;;;;53.80;47.88;;;;;;;11.08;96.42;100514.04;1819947;78;25392;-66
2022/11/01 06:47:00;;;;;;;86.67;80.15;;;;;;;11.10;96.34;100512.38;1813218;78;26101;-66
2022/11/01 06:49:28;;;;;;;86.70;79.90;;;;;;;11.07;96.07;100507.05;1811310;78;25752;-65
2022/11/01 06:51:54;;;;;;;84.90;78.05;;;;;;;11.05;96.02;100500.32;1802607;78;27447;-66
2022/11/01 06:54:20;;;;;;;82.97;76.55;;;;;;;11.05;96.01;100495.73;1802435;78;25547;-65
2022/11/01 06:56:47;;;;;;;89.90;82.92;;;;;;;11.04;95.96;100503.59;1811899;78;25604;-66
2022/11/01 06:59:15;;;;;;;89.43;81.93;;;;;;;11.03;96.09;100500.09;1810941;78;25523;-65
2022/11/01 07:01:42;;;;;;;27.37;11.60;;;;;;;11.05;95.95;100494.91;1784432;79;25509;-65
2022/11/01 07:04:09;;;;;;;21.75;13.15;;;;;;;11.04;95.57;100499.53;1839371;77;27569;-65
2022/11/01 07:06:35;;;;;;;30.80;27.65;;;;;;;11.03;95.91;100504.16;1847816;77;25815;-65
2022/11/01 07:09:01;;;;;;;21.40;15.00;;;;;;;11.06;96.12;100505.99;1859405;76;25413;-66
2022/11/01 07:11:28;;;;;;;89.55;82.75;;;;;;;11.06;96.12;100499.23;1847483;76;25439;-66
2022/11/01 07:13:54;;;;;;;88.07;81.12;;;;;;;11.05;95.98;100494.91;1847404;76;25617;-65
2022/11/01 07:16:20;;;;;;;84.62;78.17;;;;;;;11.05;96.10;100497.61;1847466;76;27404;-65
2022/11/01 07:18:46;;;;;;;91.57;84.47;;;;;;;11.05;96.07;100487.61;1847368;76;25733;-65
2022/11/01 07:21:13;;;;;;;91.40;84.30;;;;;;;11.09;96.26;100491.29;1871790;76;25533;-65
2022/11/01 07:23:39;;;;;;;86.42;79.92;;;;;;;11.11;96.43;100488.28;1847519;76;25861;-64
2022/11/01 07:26:05;;;;;;;88.87;81.97;;;;;;;11.12;96.54;100490.68;1871832;76;25577;-65
2022/11/01 07:28:31;;;;;;;88.10;81.42;;;;;;;11.16;96.89;100495.71;1864318;76;27628;-65
2022/11/01 07:30:58;;;;;;;88.17;81.17;;;;;;;11.25;97.69;100496.33;1854490;76;25573;-65
2022/11/01 07:33:24;;;;;;;59.18;54.33;;;;;;;11.28;97.27;100486.24;1847535;76;25521;-65
2022/11/01 07:35:51;;;;;;;84.90;78.50;;;;;;;11.31;97.13;100489.70;1860576;76;25376;-65
2022/11/01 07:38:18;;;;;;;88.40;81.33;;;;;;;9.93;96.98;100239.47;1847472;76;25819;-65
2022/11/01 07:40:48;;;;;;;24.67;13.40;;;;;;;9.19;96.39;100084.00;1847473;76;28186;-66
2022/11/01 07:43:13;;;;;;;90.55;83.15;;;;;;;11.35;96.57;100504.20;1804453;79;25780;-65
2022/11/01 07:45:39;;;;;;;90.03;83.25;;;;;;;11.35;96.43;100500.93;1787933;79;25566;-65
2022/11/01 07:48:09;;;;;;;90.25;83.47;;;;;;;11.36;96.67;100507.96;1774589;79;25856;-65
2022/11/01 07:50:37;;;;;;;88.87;82.17;;;;;;;11.39;96.86;100506.00;1771526;80;25421;-66
2022/11/01 07:53:16;;;;;;;86.95;80.25;;;;;;;11.40;96.64;100506.22;1776250;79;27545;-65
2022/11/01 07:55:44;;;;;;;86.78;79.67;;;;;;;11.39;96.08;100503.82;1753570;79;25807;-64
2022/11/01 07:58:12;;;;;;;64.58;59.63;;;;;;;11.37;96.52;100504.69;1807308;79;25588;-65
2022/11/01 08:00:40;;;;;;;15.55;14.33;;;;;;;11.42;96.94;100505.13;1855355;76;25442;-65
2022/11/01 08:03:16;;;;;;;87.07;79.87;;;;;;;11.46;96.96;100506.91;1873575;76;25658;-65
2022/11/01 08:05:47;;;;;;;35.48;24.35;;;;;;;;;;1802434;79;27462;-66
2022/11/01 08:08:18;;;;;;;73.28;66.62;;;;;;;;;;1869406;76;25452;-65
2022/11/01 08:10:46;;;;;;;92.10;84.60;;;;;;;;;;1847823;76;25195;-65
2022/11/01 08:13:23;;;;;;;91.47;84.32;;;;;;;;;;1847778;76;25565;-64
2022/11/01 08:15:52;;;;;;;90.03;82.57;;;;;;;;;;1853333;76;25446;-65
2022/11/01 08:18:21;;;;;;;88.12;81.40;;;;;;;;;;1853581;76;27521;-65
2022/11/01 08:20:48;;;;;;;90.57;83.85;;;;;;;;;;1846789;77;25651;-66
2022/11/01 08:23:14;;;;;;;94.32;86.30;;;;;;;;;;1847379;77;25555;-66
2022/11/01 08:25:40;;;;;;;90.15;82.72;;;;;;;;;;1862457;76;25452;-66
2022/11/01 08:28:10;;;;;;;87.08;79.75;;;;;;;;;;1853811;76;25426;-66
2022/11/01 08:30:42;;;;;;;91.60;84.40;;;;;;;;;;1849975;76;25893;-64
2022/11/01 08:33:10;;;;;;;89.28;82.17;;;;;;;;;;1847953;76;25754;-64
2022/11/01 08:35:40;;;;;;;90.83;82.90;;;;;;;;;;1848050;77;25516;-65
2022/11/01 08:38:08;;;;;;;18.92;12.58;;;;;;;;;;1869073;76;25710;-64
2022/11/01 08:40:35;;;;;;;41.10;36.55;;;;;;;;;;1854163;76;25202;-65
2022/11/01 08:43:02;;;;;;;92.10;84.70;;;;;;;;;;1856498;76;27727;-64
2022/11/01 08:45:30;;;;;;;91.05;83.82;;;;;;;;;;1854211;76;25606;-64
2022/11/01 08:48:02;;;;;;;93.70;86.22;;;;;;;;;;1852446;76;25270;-65
2022/11/01 08:50:29;;;;;;;88.70;80.87;;;;;;;;;;1854029;76;27458;-64
2022/11/01 08:52:56;;;;;;;88.30;81.25;;;;;;;;;;1834814;76;25566;-64
2022/11/01 08:55:28;;;;;;;88.62;81.30;;;;;;;;;;1855944;76;25636;-63
2022/11/01 08:57:59;;;;;;;92.53;84.87;;;;;;;;;;1861729;76;25535;-64
2022/11/01 09:00:26;;;;;;;92.15;84.13;;;;;;;;;;1850268;76;25499;-64
2022/11/01 09:02:54;;;;;;;93.20;85.72;;;;;;;;;;1847531;76;25974;-64
2022/11/01 09:05:22;;;;;;;89.52;82.45;;;;;;;;;;1868000;76;25373;-64
2022/11/01 09:07:58;;;;;;;90.25;82.88;;;;;;;;;;1851379;76;27339;-64
2022/11/01 09:10:25;;;;;;;93.22;85.70;;;;;;;;;;1852807;76;25525;-64
2022/11/01 09:12:52;;;;;;;93.47;85.17;;;;;;;;;;1846841;76;25656;-64
2022/11/01 09:15:19;;;;;;;54.93;49.45;;;;;;;;;;1846879;76;25851;-64
2022/11/01 09:17:46;;;;;;;95.22;87.27;;;;;;;;;;1862028;75;25588;-64
2022/11/01 09:20:14;;;;;;;94.40;86.57;;;;;;;;;;1866298;76;28038;-64
2022/11/01 09:22:41;;;;;;;88.12;80.87;;;;;;;;;;1861178;76;25850;-64
2022/11/01 09:25:09;;;;;;;94.85;87.22;;;;;;;;;;1860995;76;25355;-64
2022/11/01 09:27:36;;;;;;;91.63;83.95;;;;;;;;;;1846613;77;25668;-64
2022/11/01 09:30:04;;;;;;;95.32;87.55;;;;;;;;;;1863460;76;25491;-64
2022/11/01 09:32:31;;;;;;;95.23;87.13;;;;;;;;;;1871290;76;27351;-64
2022/11/01 09:34:59;;;;;;;93.37;85.30;;;;;;;;;;1854070;76;25266;-64
2022/11/01 09:37:26;;;;;;;93.82;85.92;;;;;;;;;;1846771;77;25280;-64
2022/11/01 09:39:53;;;;;;;90.77;83.35;;;;;;;;;;1856823;76;25490;-64
2022/11/01 09:42:34;;;;;;;70.80;64.47;;;;;;;;;;1846892;77;25480;-64
2022/11/01 09:45:05;;;;;;;92.88;85.25;;;;;;;;;;1850614;76;27619;-64
2022/11/01 09:47:32;;;;;;;92.17;83.97;;;;;;;;;;1823576;77;25583;-65
2022/11/01 09:50:17;;;;;;;90.38;82.78;;;;;;;;;;1868363;76;25616;-65
2022/11/01 09:52:44;;;;;;;71.02;63.95;;;;;;;;;;1846896;76;25568;-64
2022/11/01 09:55:14;;;;;;;96.20;87.75;;;;;;;;;;1850834;76;25564;-66
2022/11/01 09:57:56;;;;;;;93.37;85.15;;;;;;;;;;1846610;77;28209;-63
2022/11/01 10:00:23;;;;;;;94.42;86.22;;;;;;;;;;1846572;76;25535;-62
2022/11/01 10:03:14;;;;;;;88.95;81.15;;;;;;;;;;1846673;77;25479;-62
2022/11/01 10:05:51;;;;;;;89.32;81.05;;;;;;;;;;1859705;76;25552;-64
2022/11/01 10:08:42;;;;;;;86.17;79.00;;;;;;;;;;1854841;76;25279;-65
2022/11/01 10:11:41;;;;;;;36.48;23.47;;;;;;;;;;1846600;76;27505;-66
2022/11/01 10:14:17;;;;;;;91.78;83.80;;;;;;;;;;1870496;76;25792;-67
2022/11/01 10:16:57;;;;;;;90.87;82.80;;;;;;;;;;1846415;76;25526;-65
2022/11/01 10:19:29;;;;;;;89.17;80.97;;;;;;;;;;1846284;76;25506;-64
2022/11/01 10:21:59;;;;;;;95.53;87.55;;;;;;;;;;1845674;77;25563;-64
2022/11/01 10:26:49;;;;;;;95.30;87.37;;;;;;;12.75;93.64;100429.53;1907591;74;28077;-63
2022/11/01 10:29:32;;;;;;;91.70;83.87;;;;;;;12.64;93.52;100418.22;1861064;75;25589;-63
2022/11/01 10:32:03;;;;;;;91.72;83.72;;;;;;;12.59;93.35;100426.52;1821489;78;27481;-63
2022/11/01 10:34:36;;;;;;;88.52;81.02;;;;;;;12.57;93.66;100428.76;1815726;77;25641;-64
2022/11/01 10:37:47;;;;;;;86.87;78.77;;;;;;;12.55;93.29;100425.57;1821445;78;25626;-64
2022/11/01 10:40:25;;;;;;;19.17;18.10;;;;;;;11.40;93.26;100222.42;1820835;78;26349;-65
2022/11/01 10:42:51;;;;;;;92.65;84.37;;;;;;;;;;1820993;77;25624;-65
2022/11/01 10:45:19;;;;;;;94.00;85.57;;;;;;;;;;1826680;77;27694;-63
2022/11/01 10:47:49;;;;;;;93.27;85.12;;;;;;;;;;1810913;78;25723;-64
2022/11/01 10:50:21;;;;;;;93.17;84.17;;;;;;;;;;1820097;78;25736;-64
2022/11/01 10:52:53;;;;;;;98.80;89.57;;;;;;;;;;1789556;79;27363;-63
2022/11/01 10:55:39;;;;;;;9.23;8.83;;;;;;;;;;1796452;78;26357;-64
2022/11/01 10:58:09;;;;;;;85.80;78.30;;;;;;;;;;1800644;78;28179;-64
2022/11/01 11:00:37;;;;;;;89.03;81.00;;;;;;;;;;1818097;77;25687;-64
2022/11/01 11:03:23;;;;;;;87.83;80.00;;;;;;;;;;1822868;78;25247;-64
2022/11/01 11:05:50;;;;;;;97.33;87.53;;;;;;;;;;1806839;78;25678;-64
2022/11/01 11:08:20;;;;;;;89.40;81.45;;;;;;;;;;1826587;77;25715;-64
2022/11/01 11:10:47;;;;;;;98.05;89.67;;;;;;;;;;1821245;78;27447;-65
2022/11/01 11:13:19;;;;;;;97.53;89.35;;;;;;;;;;1824341;77;25472;-64
2022/11/01 11:16:01;;;;;;;99.30;90.77;;;;;;;;;;1824552;77;25527;-64
2022/11/01 11:18:36;;;;;;;94.65;86.60;;;;;;;;;;1821293;78;25566;-64
2022/11/01 11:21:07;;;;;;;42.13;18.98;;;;;;;;;;1821406;78;25520;-65
2022/11/01 11:23:39;;;;;;;38.40;20.12;;;;;;;;;;1821306;78;27492;-64
2022/11/01 11:26:15;;;;;;;43.23;21.00;;;;;;;;;;1808485;77;25631;-63
2022/11/01 11:28:44;;;;;;;41.53;20.35;;;;;;;;;;1808213;78;25495;-64
2022/11/01 11:31:21;;;;;;;40.15;20.37;;;;;;;;;;1798512;78;25492;-64
2022/11/01 11:34:01;;;;;;;100.95;92.02;;;;;;;;;;1808470;78;25653;-64
2022/11/01 11:36:31;;;;;;;99.55;90.03;;;;;;;;;;1792801;78;27469;-63
2022/11/01 11:38:59;;;;;;;109.57;99.05;;;;;;;;;;1790294;78;25511;-64
2022/11/01 11:41:30;;;;;;;93.47;84.60;;;;;;;;;;1814750;78;25576;-64
2022/11/01 11:43:59;;;;;;;92.00;83.67;;;;;;;;;;1790530;78;27442;-64
2022/11/01 11:46:26;;;;;;;89.37;81.37;;;;;;;;;;1762025;78;29242;-64
2022/11/01 11:49:00;;;;;;;92.78;84.37;;;;;;;;;;1754354;81;27369;-64
2022/11/01 11:51:29;;;;;;;95.20;85.28;;;;;;;;;;1754968;81;25623;-64
2022/11/01 11:54:09;;;;;;;104.97;94.92;;;;;;;;;;1756027;81;25602;-68
2022/11/01 11:56:37;;;;;;;69.23;62.47;;;;;;;;;;1756151;80;25899;-63
2022/11/01 11:59:07;;;;;;;91.23;82.47;;;;;;;;;;1754393;81;25578;-63
2022/11/01 12:01:34;;;;;;;17.60;16.60;;;;;;;;;;1747177;81;27514;-63
2022/11/01 12:04:14;;;;;;;11.83;11.23;;;;;;;;;;1757890;80;25497;-63
2022/11/01 12:06:44;;;;;;;6.33;6.05;;;;;;;;;;1757539;80;25642;-64
2022/11/01 12:11:42;;;;;;;94.83;86.65;;;;;;;12.17;93.66;100371.12;1897520;74;34808;-65
2022/11/01 12:14:21;;;;;;;96.02;87.53;;;;;;;12.06;93.85;100362.51;1840375;77;25578;-65
2022/11/01 12:16:47;;;;;;;98.75;90.05;;;;;;;12.05;94.18;100354.91;1844317;77;27488;-64
2022/11/01 12:19:29;;;;;;;91.70;83.45;;;;;;;12.09;94.28;100357.81;1843331;77;26117;-64
2022/11/01 12:22:02;;;;;;;94.97;86.55;;;;;;;10.99;94.39;100189.76;1852542;75;25659;-63
2022/11/01 12:24:42;;;;;;;89.55;81.15;;;;;;;10.99;94.39;100189.76;1848123;75;25772;-65
2022/11/01 12:27:13;;;;;;;89.62;81.28;;;;;;;11.12;95.07;100178.02;1849068;77;25664;-64
2022/11/01 12:29:53;;;;;;;91.95;84.03;;;;;;;12.08;94.44;100350.22;1824889;77;27457;-62
2022/11/01 12:32:26;;;;;;;;;;;;;;;12.09;94.28;100349.68;1844157;77;25683;-64